createdAt,value
2023-04-30T00:09:05.828Z,84.03
2023-04-30T00:11:56.752Z,84.13
2023-04-30T00:14:24.166Z,84.09
2023-04-30T00:16:51.560Z,84.16
2023-04-30T00:19:18.530Z,83.98
2023-04-30T00:21:46.217Z,84.07
2023-04-30T00:24:13.461Z,83.98
2023-04-30T00:26:44.930Z,84.15
2023-04-30T00:29:14.800Z,84.20
2023-04-30T00:46:25.003Z,84.50
2023-04-30T00:49:06.226Z,84.69
2023-04-30T00:51:33.637Z,84.75
2023-04-30T00:54:04.726Z,84.84
2023-04-30T00:57:05.403Z,84.81
2023-04-30T00:59:35.261Z,84.85
2023-04-30T01:02:24.392Z,84.93
2023-04-30T01:04:53.053Z,85.03
2023-04-30T01:07:20.271Z,85.02
2023-04-30T01:09:47.329Z,84.92
2023-04-30T01:12:26.455Z,85.10
2023-04-30T01:15:16.530Z,84.94
2023-04-30T01:18:08.006Z,85.02
2023-04-30T01:20:38.662Z,85.21
2023-04-30T01:23:18.297Z,85.28
2023-04-30T01:26:16.321Z,85.20
2023-04-30T01:28:46.456Z,85.24
2023-04-30T01:31:21.397Z,85.24
2023-04-30T01:33:48.984Z,85.39
2023-04-30T01:36:29.869Z,85.33
2023-04-30T01:39:09.860Z,85.28
2023-04-30T01:42:13.510Z,85.29
2023-04-30T01:44:54.850Z,85.38
2023-04-30T01:47:44.646Z,85.33
2023-04-30T01:50:31.309Z,85.31
2023-04-30T01:53:07.306Z,85.32
2023-04-30T01:55:52.062Z,85.44
2023-04-30T01:58:22.908Z,85.45
2023-04-30T02:00:49.727Z,85.50
2023-04-30T02:03:16.607Z,85.47
2023-04-30T02:05:43.994Z,85.47
2023-04-30T02:08:11.006Z,85.60
2023-04-30T02:10:37.875Z,85.51
2023-04-30T02:13:04.816Z,85.66
2023-04-30T02:15:32.212Z,85.70
2023-04-30T02:17:59.600Z,85.70
2023-04-30T02:21:20.816Z,85.68
2023-04-30T02:23:52.051Z,85.81
2023-04-30T02:26:39.569Z,85.90
2023-04-30T02:30:26.217Z,85.91
2023-04-30T02:33:05.822Z,86.02
2023-04-30T02:35:33.802Z,85.99
2023-04-30T02:38:01.348Z,86.10
2023-04-30T02:40:28.528Z,86.05
2023-04-30T02:42:57.009Z,85.93
2023-04-30T02:46:24.952Z,85.94
2023-04-30T02:50:11.460Z,86.06
2023-04-30T02:52:59.273Z,86.04
2023-04-30T02:55:41.666Z,86.15
2023-04-30T02:58:43.989Z,86.04
2023-04-30T03:01:18.364Z,86.09
2023-04-30T03:05:05.034Z,86.06
2023-04-30T03:07:51.879Z,85.95
2023-04-30T03:11:00.897Z,85.96
2023-04-30T03:13:56.448Z,86.16
2023-04-30T03:16:51.716Z,86.07
2023-04-30T03:25:54.133Z,86.19
2023-04-30T03:29:12.937Z,86.20
2023-04-30T03:32:08.423Z,86.15
2023-04-30T03:34:42.326Z,86.22
2023-04-30T03:37:29.388Z,86.27
2023-04-30T03:39:57.054Z,86.12
2023-04-30T03:42:37.366Z,86.19
2023-04-30T03:48:20.857Z,86.37
2023-04-30T03:51:33.973Z,86.34
2023-04-30T03:54:16.283Z,86.30
2023-04-30T03:58:01.718Z,86.30
2023-04-30T04:00:49.409Z,86.39
2023-04-30T04:03:36.510Z,86.46
2023-04-30T04:07:04.000Z,86.45
2023-04-30T04:09:51.005Z,86.43
2023-04-30T04:12:18.031Z,86.37
2023-04-30T04:14:45.713Z,86.35
2023-04-30T04:17:12.803Z,86.47
2023-04-30T04:19:39.945Z,86.37
2023-04-30T04:22:23.387Z,86.49
2023-04-30T04:24:51.304Z,86.49
2023-04-30T04:27:18.271Z,86.49
2023-04-30T04:29:45.497Z,86.43
2023-04-30T04:32:32.499Z,86.37
2023-04-30T04:35:07.330Z,86.39
2023-04-30T04:37:35.217Z,86.42
2023-04-30T04:40:02.168Z,86.42
2023-04-30T04:42:29.066Z,86.28
2023-04-30T04:44:56.030Z,86.28
2023-04-30T04:48:22.878Z,86.37
2023-04-30T04:51:11.473Z,86.10
2023-04-30T04:59:30.265Z,86.35
2023-04-30T05:01:57.220Z,86.33
2023-04-30T05:04:24.686Z,86.31
2023-04-30T05:06:52.504Z,86.47
2023-04-30T05:09:39.924Z,86.49
2023-04-30T05:12:47.294Z,86.32
2023-04-30T05:15:53.204Z,86.25
2023-04-30T05:19:01.744Z,85.98
2023-04-30T05:22:14.836Z,85.82
2023-04-30T05:24:41.943Z,85.80
2023-04-30T05:27:09.739Z,85.69
2023-04-30T05:29:36.911Z,85.62
2023-04-30T05:32:04.376Z,85.64
2023-04-30T05:34:34.457Z,85.55
2023-04-30T05:37:06.164Z,85.28
2023-04-30T05:46:01.319Z,84.58
2023-04-30T05:49:16.659Z,84.48
2023-04-30T05:51:43.826Z,84.22
2023-04-30T05:55:03.531Z,84.31
2023-04-30T06:00:25.941Z,83.97
2023-04-30T06:02:54.221Z,83.88
2023-04-30T06:09:02.443Z,83.70
2023-04-30T06:11:31.015Z,83.05
2023-04-30T06:14:13.435Z,82.79
2023-04-30T06:17:35.655Z,82.47
2023-04-30T06:20:09.751Z,81.89
2023-04-30T06:34:46.775Z,81.91
2023-04-30T06:37:53.822Z,81.82
2023-04-30T06:40:59.192Z,81.55
2023-04-30T06:50:11.518Z,80.75
2023-04-30T06:52:50.113Z,80.48
2023-04-30T06:55:17.736Z,80.21
2023-04-30T06:57:47.366Z,80.05
2023-04-30T07:36:30.288Z,78.55
2023-04-30T07:39:16.377Z,78.44
2023-04-30T07:41:58.335Z,78.20
2023-04-30T07:44:28.215Z,78.10
2023-04-30T07:53:43.272Z,77.70
2023-04-30T07:56:32.933Z,77.52
2023-04-30T08:01:58.824Z,77.02
2023-04-30T08:04:29.298Z,77.12
2023-04-30T08:06:58.815Z,76.69
2023-04-30T08:09:32.641Z,76.47
2023-04-30T08:12:00.352Z,75.80
2023-04-30T08:14:27.615Z,75.72
2023-04-30T08:16:54.729Z,75.51
2023-04-30T08:19:22.320Z,75.04
2023-04-30T08:21:49.877Z,74.68
2023-04-30T08:24:23.306Z,74.31
2023-04-30T08:26:51.218Z,73.76
2023-04-30T08:29:19.354Z,73.78
2023-04-30T08:31:46.583Z,73.44
2023-04-30T08:34:13.706Z,73.27
2023-04-30T08:36:40.799Z,73.07
2023-04-30T08:39:08.141Z,72.49
2023-04-30T08:41:36.811Z,72.14
2023-04-30T08:44:05.211Z,71.80
2023-04-30T08:46:36.352Z,71.32
2023-04-30T08:49:03.543Z,70.79
2023-04-30T08:51:33.592Z,70.60
2023-04-30T08:54:00.605Z,69.97
2023-04-30T08:56:29.743Z,69.25
2023-04-30T08:58:56.853Z,69.02
2023-04-30T09:01:25.683Z,68.39
2023-04-30T09:03:52.844Z,67.40
2023-04-30T09:06:20.532Z,67.06
2023-04-30T09:08:51.221Z,66.42
2023-04-30T09:11:25.866Z,65.73
2023-04-30T09:13:55.420Z,65.56
2023-04-30T09:16:24.737Z,64.99
2023-04-30T09:18:55.235Z,64.16
2023-04-30T09:21:36.992Z,63.91
2023-04-30T09:29:08.227Z,63.90
2023-04-30T09:31:37.216Z,63.10
2023-04-30T09:34:07.129Z,62.87
2023-04-30T09:36:37.398Z,62.32
2023-04-30T09:39:20.302Z,61.34
2023-04-30T09:41:48.614Z,60.80
2023-04-30T09:44:32.273Z,60.76
2023-04-30T09:47:00.494Z,60.07
2023-04-30T09:53:15.311Z,59.51
2023-04-30T10:19:01.526Z,56.16
2023-04-30T10:21:47.225Z,53.36
2023-04-30T10:24:16.656Z,55.45
2023-04-30T10:26:44.965Z,55.34
2023-04-30T10:29:17.211Z,55.08
2023-04-30T10:31:48.402Z,53.84
2023-04-30T10:34:30.970Z,54.11
2023-04-30T10:37:22.096Z,53.97
2023-04-30T10:39:55.946Z,53.90
2023-04-30T10:42:23.617Z,54.20
2023-04-30T10:44:50.595Z,54.07
2023-04-30T10:47:19.727Z,52.52
2023-04-30T10:49:50.367Z,51.34
2023-04-30T10:52:30.383Z,51.58
2023-04-30T10:59:32.580Z,52.37
2023-04-30T11:10:18.243Z,52.48
2023-04-30T11:14:46.230Z,51.84
2023-04-30T11:20:54.826Z,49.97
2023-04-30T11:23:39.280Z,49.03
2023-04-30T11:26:07.843Z,49.65
2023-04-30T11:28:35.999Z,48.89
2023-04-30T11:31:03.457Z,48.62
2023-04-30T11:33:31.979Z,49.40
2023-04-30T11:36:00.466Z,50.08
2023-04-30T11:38:34.168Z,49.64
2023-04-30T11:41:02.539Z,49.38
2023-04-30T11:43:31.229Z,48.82
2023-04-30T11:46:12.505Z,49.33
2023-04-30T11:48:45.229Z,48.85
2023-04-30T11:51:22.453Z,46.42
2023-04-30T11:53:51.071Z,46.33
2023-04-30T11:56:22.338Z,46.98
2023-04-30T11:58:51.663Z,47.77
2023-04-30T12:01:22.045Z,48.51
2023-04-30T12:03:51.617Z,48.26
2023-04-30T12:06:24.184Z,47.37
2023-04-30T12:08:55.359Z,45.90
2023-04-30T12:11:32.003Z,45.70
2023-04-30T12:14:07.872Z,46.09
2023-04-30T12:16:42.277Z,46.70
2023-04-30T12:19:12.850Z,46.36
2023-04-30T12:21:41.580Z,46.51
2023-04-30T12:24:08.450Z,46.84
2023-04-30T12:26:37.621Z,46.89
2023-04-30T12:29:09.193Z,45.85
2023-04-30T12:31:37.783Z,45.98
2023-04-30T12:34:06.684Z,45.43
2023-04-30T12:36:36.737Z,46.35
2023-04-30T12:39:11.431Z,47.07
2023-04-30T12:41:42.784Z,46.64
2023-04-30T12:44:24.849Z,45.61
2023-04-30T12:47:00.687Z,45.39
2023-04-30T12:49:34.921Z,43.95
2023-04-30T12:52:15.786Z,44.32
2023-04-30T12:54:43.479Z,44.67
2023-04-30T12:57:12.631Z,45.17
2023-04-30T12:59:57.440Z,45.03
2023-04-30T13:02:25.811Z,45.24
2023-04-30T13:04:53.795Z,46.15
2023-04-30T13:07:21.247Z,46.56
2023-04-30T13:09:48.119Z,44.86
2023-04-30T13:12:15.197Z,44.64
2023-04-30T13:14:42.244Z,44.48
2023-04-30T13:17:11.062Z,45.70
2023-04-30T13:19:37.961Z,45.24
2023-04-30T13:22:05.245Z,45.22
2023-04-30T13:24:32.177Z,45.42
2023-04-30T13:26:59.445Z,45.11
2023-04-30T13:29:26.903Z,44.33
2023-04-30T13:31:53.939Z,44.44
2023-04-30T13:34:21.300Z,43.13
2023-04-30T13:36:48.783Z,42.92
2023-04-30T13:39:15.825Z,43.31
2023-04-30T13:41:42.672Z,43.07
2023-04-30T13:44:09.651Z,43.57
2023-04-30T13:46:36.532Z,43.98
2023-04-30T13:49:03.750Z,42.48
2023-04-30T13:51:30.943Z,43.53
2023-04-30T13:53:58.152Z,43.28
2023-04-30T13:56:25.817Z,43.75
2023-04-30T13:58:52.732Z,44.03
2023-04-30T14:01:19.629Z,44.03
2023-04-30T14:03:47.918Z,43.71
2023-04-30T14:06:15.060Z,44.24
2023-04-30T14:08:42.031Z,44.42
2023-04-30T14:11:08.877Z,43.09
2023-04-30T14:13:36.055Z,44.24
2023-04-30T14:16:03.101Z,43.15
2023-04-30T14:18:30.043Z,42.16
2023-04-30T14:20:56.980Z,41.99
2023-04-30T14:23:23.906Z,42.25
2023-04-30T14:25:50.805Z,42.06
2023-04-30T14:28:18.245Z,43.34
2023-04-30T14:30:45.224Z,44.31
2023-04-30T14:33:13.154Z,43.45
2023-04-30T14:35:41.705Z,43.37
2023-04-30T14:38:08.661Z,43.59
2023-04-30T14:40:35.744Z,43.94
2023-04-30T14:43:02.616Z,43.60
2023-04-30T14:45:29.742Z,43.37
2023-04-30T14:47:56.784Z,43.82
2023-04-30T14:50:24.299Z,43.37
2023-04-30T14:52:51.542Z,43.29
2023-04-30T14:55:18.521Z,44.14
2023-04-30T14:57:45.708Z,43.56
2023-04-30T15:00:12.988Z,43.49
2023-04-30T15:02:39.998Z,42.98
2023-04-30T15:05:08.546Z,42.73
2023-04-30T15:07:36.946Z,43.54
2023-04-30T15:10:04.468Z,44.31
2023-04-30T15:12:31.628Z,44.78
2023-04-30T15:14:58.604Z,45.52
2023-04-30T15:17:25.644Z,45.02
2023-04-30T15:19:53.818Z,44.99
2023-04-30T15:22:21.594Z,46.08
2023-04-30T15:24:48.608Z,45.95
2023-04-30T15:27:15.642Z,45.74
2023-04-30T15:29:42.782Z,45.83
2023-04-30T15:32:09.801Z,45.67
2023-04-30T15:34:36.810Z,46.20
2023-04-30T15:37:03.680Z,46.46
2023-04-30T15:39:30.603Z,46.03
2023-04-30T15:41:57.542Z,45.75
2023-04-30T15:44:24.500Z,45.35
2023-04-30T15:46:51.884Z,45.18
2023-04-30T15:49:19.000Z,45.47
2023-04-30T15:51:46.434Z,45.38
2023-04-30T15:54:14.077Z,45.27
2023-04-30T15:56:41.298Z,45.71
2023-04-30T15:59:08.333Z,45.85
2023-04-30T16:01:35.298Z,45.85
2023-04-30T16:04:02.528Z,46.02
2023-04-30T16:06:32.165Z,46.05
2023-04-30T16:08:59.189Z,46.09
2023-04-30T16:11:26.180Z,46.22
2023-04-30T16:13:53.780Z,46.03
2023-04-30T16:16:20.807Z,45.86
2023-04-30T16:18:47.878Z,46.12
2023-04-30T16:21:14.872Z,46.08
2023-04-30T16:23:41.775Z,45.37
2023-04-30T16:26:08.968Z,45.70
2023-04-30T16:28:35.984Z,45.94
2023-04-30T16:31:03.925Z,45.81
2023-04-30T16:33:30.869Z,46.08
2023-04-30T16:35:58.089Z,46.31
2023-04-30T16:38:25.096Z,45.58
2023-04-30T16:40:52.445Z,45.03
2023-04-30T16:43:19.670Z,45.14
2023-04-30T16:45:46.604Z,44.63
2023-04-30T16:48:13.537Z,44.11
2023-04-30T16:50:40.549Z,44.30
2023-04-30T16:53:09.230Z,44.13
2023-04-30T16:55:37.785Z,44.62
2023-04-30T16:58:04.736Z,44.32
2023-04-30T17:00:31.796Z,43.71
2023-04-30T17:02:58.818Z,43.71
2023-04-30T17:05:26.357Z,43.28
2023-04-30T17:07:53.408Z,43.04
2023-04-30T17:10:21.746Z,43.41
2023-04-30T17:12:49.142Z,43.19
2023-04-30T17:15:18.388Z,43.16
2023-04-30T17:17:45.891Z,43.73
2023-04-30T17:20:12.934Z,43.85
2023-04-30T17:22:40.454Z,43.95
2023-04-30T17:25:08.252Z,43.84
2023-04-30T17:27:35.873Z,43.82
2023-04-30T17:30:04.556Z,43.80
2023-04-30T17:32:33.902Z,44.02
2023-04-30T17:35:02.866Z,44.22
2023-04-30T17:37:30.004Z,43.89
2023-04-30T17:39:57.351Z,44.04
2023-04-30T17:42:28.463Z,44.05
2023-04-30T17:44:55.635Z,43.84
2023-04-30T17:47:23.173Z,43.44
2023-04-30T17:49:50.691Z,44.29
2023-04-30T17:52:17.807Z,44.22
2023-04-30T18:00:34.676Z,43.99
2023-04-30T18:03:06.343Z,44.92
2023-04-30T18:05:36.676Z,44.97
2023-04-30T18:08:04.183Z,44.43
2023-04-30T18:11:25.700Z,44.62
2023-04-30T18:13:52.701Z,44.05
2023-04-30T18:16:20.190Z,44.71
2023-04-30T18:18:48.028Z,45.16
2023-04-30T18:24:09.547Z,45.91
2023-04-30T18:26:38.591Z,45.82
2023-04-30T18:32:10.931Z,46.33
2023-04-30T18:45:24.553Z,48.41
2023-04-30T18:51:30.957Z,48.66
2023-04-30T18:54:07.253Z,49.22
2023-04-30T18:57:01.661Z,49.59
2023-04-30T18:59:29.596Z,50.14
2023-04-30T19:14:14.380Z,52.66
2023-04-30T19:16:48.120Z,53.00
2023-04-30T19:19:15.011Z,53.76
2023-04-30T19:21:42.751Z,53.93
2023-04-30T19:24:10.722Z,54.67
2023-04-30T19:26:38.009Z,55.06
2023-04-30T19:29:29.858Z,55.70
2023-04-30T19:31:59.894Z,55.67
2023-04-30T19:34:27.488Z,55.66
2023-04-30T19:36:55.279Z,55.97
2023-04-30T19:39:22.247Z,56.56
2023-04-30T19:41:50.093Z,56.88
2023-04-30T19:44:20.164Z,57.48
2023-04-30T19:49:14.548Z,58.11
2023-04-30T19:51:41.729Z,58.17
2023-04-30T19:54:14.018Z,58.71
2023-04-30T19:57:02.179Z,59.23
2023-04-30T20:00:18.789Z,59.48
2023-04-30T20:03:14.393Z,59.65
2023-04-30T20:05:41.327Z,60.06
2023-04-30T20:08:09.557Z,60.32
2023-04-30T20:10:38.367Z,60.93
2023-04-30T20:13:06.519Z,61.15
2023-04-30T20:15:33.932Z,61.20
2023-04-30T20:18:26.884Z,61.19
2023-04-30T20:20:53.774Z,62.02
2023-04-30T20:23:20.980Z,61.97
2023-04-30T20:26:28.752Z,62.70
2023-04-30T20:28:55.723Z,62.25
2023-04-30T20:31:56.015Z,62.37
2023-04-30T20:34:23.659Z,63.44
2023-04-30T20:36:52.928Z,63.01
2023-04-30T20:42:57.407Z,64.14
2023-04-30T20:48:22.765Z,64.88
2023-04-30T20:51:30.162Z,64.66
2023-04-30T20:53:57.813Z,65.63
2023-04-30T20:56:27.676Z,65.68
2023-04-30T21:05:37.944Z,66.09
2023-04-30T21:08:05.917Z,66.45
2023-04-30T21:10:37.061Z,67.05
2023-04-30T21:13:07.008Z,66.97
2023-04-30T21:15:35.390Z,67.26
2023-04-30T21:18:02.380Z,67.35
2023-04-30T21:20:31.665Z,67.31
2023-04-30T21:22:58.891Z,67.86
2023-04-30T21:25:26.021Z,67.77
2023-04-30T21:27:53.061Z,67.61
2023-04-30T21:30:23.526Z,68.13
2023-04-30T21:32:58.106Z,68.09
2023-04-30T21:35:25.620Z,68.02
2023-04-30T21:37:53.050Z,68.13
2023-04-30T21:40:19.948Z,68.43
2023-04-30T21:42:46.904Z,68.58
2023-04-30T21:45:13.763Z,68.59
2023-04-30T21:47:40.668Z,68.75
2023-04-30T21:50:08.315Z,68.96
2023-04-30T21:52:35.110Z,69.04
2023-04-30T21:55:02.059Z,69.28
2023-04-30T21:57:28.896Z,69.45
2023-04-30T21:59:55.816Z,69.56
2023-04-30T22:02:24.236Z,69.59
2023-04-30T22:04:51.442Z,69.86
2023-04-30T22:07:18.364Z,69.80
2023-04-30T22:09:45.383Z,69.99
2023-04-30T22:12:12.284Z,70.19
2023-04-30T22:14:39.317Z,70.18
2023-04-30T22:17:06.230Z,70.34
2023-04-30T22:19:33.014Z,70.17
2023-04-30T22:21:59.798Z,70.55
2023-04-30T22:24:26.584Z,70.52
2023-04-30T22:26:53.305Z,70.70
2023-04-30T22:29:20.531Z,70.89
2023-04-30T22:31:47.655Z,70.89
2023-04-30T22:34:15.627Z,71.14
2023-04-30T22:36:43.727Z,71.05
2023-04-30T22:39:11.934Z,71.36
2023-04-30T22:41:39.101Z,71.59
2023-04-30T22:44:06.083Z,71.55
2023-04-30T22:46:34.920Z,71.68
2023-04-30T22:49:01.935Z,71.59
2023-04-30T22:51:28.826Z,71.82
2023-04-30T22:53:56.835Z,71.87
2023-04-30T22:56:24.292Z,72.17
2023-04-30T22:58:51.128Z,72.37
2023-04-30T23:01:18.335Z,72.12
2023-04-30T23:03:45.243Z,71.85
2023-04-30T23:06:12.235Z,72.04
2023-04-30T23:08:39.331Z,71.98
2023-04-30T23:11:15.098Z,72.37
2023-04-30T23:14:02.104Z,72.77
2023-04-30T23:16:29.049Z,72.41
2023-04-30T23:18:56.769Z,72.71
2023-04-30T23:21:24.077Z,72.67
2023-04-30T23:23:51.099Z,72.87
2023-04-30T23:26:18.200Z,72.90
2023-04-30T23:28:45.166Z,72.96
2023-04-30T23:31:12.357Z,73.07
2023-04-30T23:33:39.207Z,72.84
2023-04-30T23:36:06.646Z,73.28
2023-04-30T23:38:33.596Z,73.38
2023-04-30T23:41:00.596Z,73.45
2023-04-30T23:43:29.776Z,73.77
2023-04-30T23:46:00.227Z,73.35
2023-04-30T23:48:27.319Z,73.76
2023-04-30T23:51:05.553Z,73.69
2023-04-30T23:53:32.527Z,73.81
2023-04-30T23:56:00.308Z,73.53
2023-04-30T23:58:30.396Z,73.82
